createdAt,value
2017-11-04T00:02:10.714Z,79.90
2017-11-04T00:04:39.008Z,80.50
2017-11-04T00:07:07.241Z,79.80
2017-11-04T00:09:35.579Z,79.80
2017-11-04T00:12:03.127Z,79.80
2017-11-04T00:14:31.360Z,79.90
2017-11-04T00:16:59.027Z,79.80
2017-11-04T00:19:26.536Z,79.80
2017-11-04T00:21:54.815Z,79.70
2017-11-04T00:24:23.144Z,79.50
2017-11-04T00:26:51.410Z,79.50
2017-11-04T00:29:19.351Z,79.50
2017-11-04T00:31:47.598Z,79.30
2017-11-04T00:34:15.062Z,79.20
2017-11-04T00:36:42.650Z,78.90
2017-11-04T00:39:10.133Z,78.60
2017-11-04T00:41:37.628Z,78.40
2017-11-04T00:44:05.183Z,78.20
2017-11-04T00:46:33.434Z,78.40
2017-11-04T00:49:00.938Z,78.40
2017-11-04T00:51:28.513Z,78.40
2017-11-04T00:53:56.791Z,79.10
2017-11-04T00:56:24.307Z,79.20
2017-11-04T00:58:52.666Z,79.30
2017-11-04T01:01:26.131Z,79.30
2017-11-04T01:03:54.490Z,78.70
2017-11-04T01:06:22.015Z,78.60
2017-11-04T01:08:49.482Z,78.50
2017-11-04T01:11:17.076Z,79.00
2017-11-04T01:13:45.423Z,79.10
2017-11-04T01:16:12.910Z,79.00
2017-11-04T01:18:40.504Z,79.50
2017-11-04T01:23:40.867Z,80.10
2017-11-04T01:26:08.347Z,79.90
2017-11-04T01:28:35.849Z,80.10
2017-11-04T01:31:03.489Z,80.30
2017-11-04T01:33:30.992Z,80.10
2017-11-04T01:35:58.472Z,80.10
2017-11-04T01:38:26.078Z,80.10
2017-11-04T01:43:32.145Z,79.70
2017-11-04T01:45:59.636Z,79.50
2017-11-04T01:48:26.606Z,79.70
2017-11-04T01:50:54.188Z,79.40
2017-11-04T01:53:21.171Z,79.50
2017-11-04T01:55:48.695Z,79.90
2017-11-04T01:58:16.630Z,79.40
2017-11-04T02:00:44.100Z,78.90
2017-11-04T02:03:11.585Z,79.10
2017-11-04T02:05:39.163Z,79.00
2017-11-04T02:08:07.432Z,78.80
2017-11-04T02:10:35.023Z,78.80
2017-11-04T02:13:02.608Z,78.70
2017-11-04T02:15:30.854Z,78.10
2017-11-04T02:17:58.346Z,78.10
2017-11-04T02:20:25.904Z,78.00
2017-11-04T02:22:53.408Z,78.00
2017-11-04T02:25:20.962Z,77.80
2017-11-04T02:27:48.525Z,77.60
2017-11-04T02:30:16.064Z,77.40
2017-11-04T02:32:43.743Z,77.20
2017-11-04T02:35:12.124Z,76.80
2017-11-04T02:37:39.596Z,76.80
2017-11-04T02:40:07.103Z,76.20
2017-11-04T02:42:35.384Z,76.30
2017-11-04T02:45:02.927Z,76.30
2017-11-04T02:47:30.418Z,75.80
2017-11-04T02:49:57.984Z,75.40
2017-11-04T02:52:25.566Z,75.60
2017-11-04T02:54:53.026Z,75.80
2017-11-04T02:57:20.481Z,76.10
2017-11-04T02:59:48.050Z,76.30
2017-11-04T03:02:15.530Z,76.10
2017-11-04T03:04:43.080Z,76.10
2017-11-04T03:07:10.544Z,75.90
2017-11-04T03:09:38.194Z,75.80
2017-11-04T03:12:05.671Z,75.60
2017-11-04T03:14:33.168Z,75.20
2017-11-04T03:17:01.503Z,75.00
2017-11-04T03:19:28.977Z,74.90
2017-11-04T03:21:56.457Z,74.40
2017-11-04T03:24:24.773Z,73.60
2017-11-04T03:26:52.267Z,73.60
2017-11-04T03:29:19.790Z,73.70
2017-11-04T03:31:47.330Z,73.60
2017-11-04T03:34:14.820Z,73.80
2017-11-04T03:36:42.795Z,74.00
2017-11-04T03:39:10.273Z,74.00
2017-11-04T03:41:37.760Z,74.40
2017-11-04T03:44:05.681Z,74.10
2017-11-04T03:46:33.166Z,74.40
2017-11-04T03:49:00.639Z,74.50
2017-11-04T03:51:28.566Z,74.20
2017-11-04T03:53:56.053Z,74.20
2017-11-04T03:56:23.535Z,74.10
2017-11-04T03:58:51.842Z,74.60
2017-11-04T04:01:19.333Z,74.60
2017-11-04T04:03:47.246Z,75.00
2017-11-04T04:06:15.485Z,75.30
2017-11-04T04:08:42.951Z,75.50
2017-11-04T04:11:10.889Z,75.40
2017-11-04T04:13:38.368Z,75.30
2017-11-04T04:16:05.836Z,75.30
2017-11-04T04:18:33.429Z,75.20
2017-11-04T04:21:00.899Z,75.00
2017-11-04T04:23:28.442Z,74.70
2017-11-04T04:25:56.692Z,74.80
2017-11-04T04:28:24.288Z,74.90
2017-11-04T04:30:52.301Z,74.80
2017-11-04T04:33:19.789Z,75.10
2017-11-04T04:35:47.260Z,74.70
2017-11-04T04:38:15.201Z,75.10
2017-11-04T04:40:42.684Z,75.50
2017-11-04T04:43:10.155Z,75.60
2017-11-04T04:45:38.848Z,75.90
2017-11-04T04:48:06.319Z,75.90
2017-11-04T04:50:34.589Z,75.80
2017-11-04T04:53:02.264Z,75.80
2017-11-04T04:55:29.736Z,75.60
2017-11-04T04:57:57.191Z,75.50
2017-11-04T05:00:25.971Z,74.90
2017-11-04T05:02:53.421Z,74.90
2017-11-04T05:05:20.890Z,74.90
2017-11-04T05:07:48.442Z,74.60
2017-11-04T05:10:15.917Z,74.40
2017-11-04T05:12:43.393Z,74.40
2017-11-04T05:15:10.974Z,75.10
2017-11-04T05:17:38.466Z,75.70
2017-11-04T05:20:05.932Z,75.90
2017-11-04T05:22:33.516Z,76.00
2017-11-04T05:25:00.986Z,75.80
2017-11-04T05:27:28.444Z,75.50
2017-11-04T05:29:56.002Z,75.50
2017-11-04T05:32:24.252Z,75.00
2017-11-04T05:34:51.719Z,75.00
2017-11-04T05:37:19.320Z,75.00
2017-11-04T05:39:46.823Z,75.00
2017-11-04T05:42:14.294Z,75.20
2017-11-04T05:44:41.880Z,74.90
2017-11-04T05:47:09.364Z,75.00
2017-11-04T05:49:36.858Z,75.00
2017-11-04T05:52:04.424Z,75.10
2017-11-04T05:54:31.895Z,75.10
2017-11-04T05:56:59.360Z,75.10
2017-11-04T05:59:26.939Z,75.20
2017-11-04T06:01:55.175Z,75.20
2017-11-04T06:04:22.667Z,75.10
2017-11-04T06:06:50.195Z,75.10
2017-11-04T06:09:18.451Z,74.60
2017-11-04T06:11:46.015Z,74.60
2017-11-04T06:14:13.503Z,74.60
2017-11-04T06:16:40.963Z,74.20
2017-11-04T06:19:10.322Z,73.90
2017-11-04T06:21:38.018Z,73.90
2017-11-04T06:24:06.416Z,73.70
2017-11-04T06:26:34.196Z,73.50
2017-11-04T06:29:01.668Z,73.00
2017-11-04T06:31:29.143Z,72.80
2017-11-04T06:33:56.702Z,72.80
2017-11-04T06:36:24.991Z,72.60
2017-11-04T06:38:53.242Z,72.40
2017-11-04T06:41:20.807Z,72.40
2017-11-04T06:43:48.274Z,72.20
2017-11-04T06:46:16.529Z,71.30
2017-11-04T06:48:44.107Z,71.30
2017-11-04T06:51:11.605Z,71.20
2017-11-04T06:53:39.089Z,71.20
2017-11-04T06:56:06.661Z,71.10
2017-11-04T06:58:35.245Z,71.00
2017-11-04T07:01:02.719Z,71.50
2017-11-04T07:03:30.285Z,70.70
2017-11-04T07:05:57.811Z,70.60
2017-11-04T07:08:25.294Z,70.30
2017-11-04T07:10:52.834Z,69.60
2017-11-04T07:13:21.075Z,69.20
2017-11-04T07:15:48.683Z,69.20
2017-11-04T07:18:16.142Z,68.50
2017-11-04T07:20:43.663Z,68.00
2017-11-04T07:23:11.238Z,68.00
2017-11-04T07:25:38.716Z,67.50
2017-11-04T07:28:06.273Z,67.20
2017-11-04T07:30:33.857Z,66.40
2017-11-04T07:33:01.445Z,66.20
2017-11-04T07:35:28.929Z,66.40
2017-11-04T07:37:56.482Z,66.00
2017-11-04T07:40:24.966Z,65.50
2017-11-04T07:42:53.434Z,65.60
2017-11-04T07:45:21.028Z,65.60
2017-11-04T07:47:48.496Z,64.20
2017-11-04T07:50:16.005Z,62.50
2017-11-04T07:52:43.543Z,62.10
2017-11-04T07:55:11.779Z,60.10
2017-11-04T07:57:39.342Z,60.20
2017-11-04T08:00:06.877Z,59.10
2017-11-04T08:02:34.452Z,58.00
2017-11-04T08:05:02.371Z,57.70
2017-11-04T08:07:29.874Z,57.10
2017-11-04T08:09:58.147Z,56.40
2017-11-04T08:12:25.724Z,56.40
2017-11-04T08:14:53.271Z,56.20
2017-11-04T08:17:20.740Z,55.80
2017-11-04T08:19:49.060Z,55.40
2017-11-04T08:22:16.569Z,55.40
2017-11-04T08:24:44.764Z,55.90
2017-11-04T08:27:12.796Z,55.80
2017-11-04T08:29:40.489Z,55.20
2017-11-04T08:32:08.498Z,56.10
2017-11-04T08:34:40.855Z,56.30
2017-11-04T08:37:08.331Z,56.70
2017-11-04T08:39:35.901Z,56.50
2017-11-04T08:42:04.229Z,56.40
2017-11-04T08:44:32.656Z,56.30
2017-11-04T08:47:00.244Z,56.30
2017-11-04T08:49:27.735Z,55.80
2017-11-04T08:51:55.309Z,55.90
2017-11-04T08:54:24.919Z,55.60
2017-11-04T08:56:52.416Z,55.70
2017-11-04T08:59:19.968Z,55.40
2017-11-04T09:01:48.317Z,55.10
2017-11-04T09:04:15.863Z,54.90
2017-11-04T09:06:44.203Z,54.80
2017-11-04T09:09:11.671Z,54.70
2017-11-04T09:11:39.255Z,54.60
2017-11-04T09:14:06.812Z,53.70
2017-11-04T09:16:36.095Z,53.20
2017-11-04T09:19:03.575Z,53.10
2017-11-04T09:21:31.115Z,53.70
2017-11-04T09:24:00.385Z,52.70
2017-11-04T09:26:27.867Z,52.70
2017-11-04T09:28:55.361Z,52.70
2017-11-04T09:31:23.001Z,52.40
2017-11-04T09:33:52.105Z,51.80
2017-11-04T09:36:34.840Z,51.80
2017-11-04T09:39:02.323Z,51.30
2017-11-04T09:41:31.497Z,49.80
2017-11-04T09:44:12.616Z,49.80
2017-11-04T09:46:40.113Z,50.90
2017-11-04T09:49:07.696Z,50.80
2017-11-04T09:51:35.426Z,49.90
2017-11-04T09:54:03.692Z,49.10
2017-11-04T09:56:31.190Z,49.10
2017-11-04T09:58:58.756Z,49.50
2017-11-04T10:01:26.254Z,49.90
2017-11-04T10:03:53.830Z,49.20
2017-11-04T10:06:21.378Z,48.70
2017-11-04T10:08:49.071Z,49.20
2017-11-04T10:11:17.325Z,49.80
2017-11-04T10:13:45.774Z,49.80
2017-11-04T10:19:07.150Z,49.60
2017-11-04T10:21:35.432Z,49.40
2017-11-04T10:24:03.803Z,49.70
2017-11-04T10:26:31.305Z,49.20
2017-11-04T10:28:58.789Z,48.70
2017-11-04T10:31:26.599Z,48.40
2017-11-04T10:34:04.853Z,46.10
2017-11-04T10:36:34.242Z,45.40
2017-11-04T10:39:16.746Z,45.50
2017-11-04T10:41:45.329Z,44.00
2017-11-04T10:44:13.586Z,42.80
2017-11-04T10:46:42.032Z,42.70
2017-11-04T10:49:10.546Z,42.90
2017-11-04T10:51:46.619Z,42.80
2017-11-04T10:54:17.167Z,43.40
2017-11-04T10:56:46.037Z,43.30
2017-11-04T10:59:41.674Z,43.60
2017-11-04T11:02:28.375Z,43.80
2017-11-04T11:28:05.011Z,43.60
2017-11-04T11:30:32.539Z,44.50
2017-11-04T11:32:59.988Z,44.70
2017-11-04T11:35:27.663Z,44.50
2017-11-04T11:37:55.117Z,44.30
2017-11-04T11:40:23.606Z,44.30
2017-11-04T11:42:51.079Z,44.20
2017-11-04T11:45:22.436Z,43.70
2017-11-04T11:47:49.915Z,43.90
2017-11-04T11:50:17.428Z,43.90
2017-11-04T11:52:45.064Z,43.80
2017-11-04T11:55:12.555Z,43.90
2017-11-04T11:57:40.038Z,44.00
2017-11-04T12:00:07.601Z,44.40
2017-11-04T12:02:35.830Z,43.70
2017-11-04T12:05:03.308Z,43.70
2017-11-04T12:07:30.868Z,43.50
2017-11-04T12:09:58.471Z,43.00
2017-11-04T12:12:26.799Z,42.60
2017-11-04T12:14:54.272Z,42.60
2017-11-04T12:17:22.683Z,42.50
2017-11-04T12:19:51.019Z,43.50
2017-11-04T12:22:18.540Z,42.90
2017-11-04T12:24:46.020Z,42.90
2017-11-04T12:27:13.612Z,43.20
2017-11-04T12:29:41.082Z,43.60
2017-11-04T12:32:08.669Z,44.10
2017-11-04T12:34:36.507Z,44.80
2017-11-04T12:37:04.002Z,44.80
2017-11-04T12:39:31.522Z,44.70
2017-11-04T12:41:58.985Z,45.00
2017-11-04T12:44:26.568Z,45.20
2017-11-04T12:46:54.023Z,45.40
2017-11-04T12:49:21.527Z,46.20
2017-11-04T12:51:49.216Z,46.50
2017-11-04T12:54:16.849Z,46.80
2017-11-04T12:56:44.497Z,46.90
2017-11-04T12:59:11.962Z,46.80
2017-11-04T13:01:40.281Z,47.40
2017-11-04T13:04:07.800Z,47.40
2017-11-04T13:06:35.262Z,47.40
2017-11-04T13:09:03.044Z,47.20
2017-11-04T13:11:30.565Z,47.40
2017-11-04T13:13:58.958Z,47.50
2017-11-04T13:16:26.415Z,47.50
2017-11-04T13:18:54.694Z,47.90
2017-11-04T13:21:22.197Z,47.80
2017-11-04T13:23:49.718Z,47.80
2017-11-04T13:26:18.113Z,48.10
2017-11-04T13:28:46.359Z,48.90
2017-11-04T13:31:13.822Z,48.30
2017-11-04T13:33:41.410Z,48.50
2017-11-04T13:36:08.951Z,48.80
2017-11-04T13:38:36.448Z,49.30
2017-11-04T13:41:04.394Z,49.20
2017-11-04T13:43:31.891Z,49.20
2017-11-04T13:45:59.359Z,49.40
2017-11-04T13:48:26.919Z,49.60
2017-11-04T13:50:54.410Z,49.70
2017-11-04T13:53:21.933Z,49.90
2017-11-04T13:55:49.455Z,50.20
2017-11-04T13:58:17.014Z,50.30
2017-11-04T14:00:44.548Z,50.20
2017-11-04T14:03:12.592Z,50.00
2017-11-04T14:05:40.153Z,50.20
2017-11-04T14:08:07.611Z,50.10
2017-11-04T14:10:35.279Z,50.40
2017-11-04T14:13:02.873Z,50.40
2017-11-04T14:15:30.331Z,50.60
2017-11-04T14:17:57.833Z,50.70
2017-11-04T14:20:25.443Z,51.00
2017-11-04T14:22:53.717Z,51.20
2017-11-04T14:25:21.173Z,51.20
2017-11-04T14:27:49.538Z,51.20
2017-11-04T14:30:17.031Z,51.10
2017-11-04T14:32:44.534Z,50.90
2017-11-04T14:35:13.796Z,50.90
2017-11-04T14:37:41.390Z,50.80
2017-11-04T14:40:08.895Z,50.80
2017-11-04T14:42:36.558Z,51.10
2017-11-04T14:45:04.020Z,51.30
2017-11-04T14:47:31.708Z,51.30
2017-11-04T14:49:59.250Z,51.40
2017-11-04T14:52:26.820Z,51.30
2017-11-04T14:54:54.352Z,51.50
2017-11-04T14:57:22.667Z,51.60
2017-11-04T14:59:50.304Z,51.60
2017-11-04T15:02:17.772Z,51.80
2017-11-04T15:04:45.356Z,51.70
2017-11-04T15:07:12.909Z,51.80
2017-11-04T15:09:40.374Z,51.90
2017-11-04T15:12:07.875Z,52.10
2017-11-04T15:14:35.381Z,52.10
2017-11-04T15:17:03.008Z,52.20
2017-11-04T15:19:30.633Z,52.20
2017-11-04T15:21:58.133Z,52.40
2017-11-04T15:24:29.347Z,52.50
2017-11-04T15:26:57.008Z,52.50
2017-11-04T15:29:24.533Z,52.40
2017-11-04T15:31:52.986Z,52.60
2017-11-04T15:34:20.587Z,52.50
2017-11-04T15:36:48.194Z,52.60
2017-11-04T15:39:15.860Z,52.70
2017-11-04T15:41:43.406Z,53.00
2017-11-04T15:44:10.898Z,53.80
2017-11-04T15:46:38.487Z,53.40
2017-11-04T15:49:06.898Z,53.50
2017-11-04T15:51:35.360Z,53.70
2017-11-04T15:54:03.085Z,53.90
2017-11-04T15:56:30.580Z,54.10
2017-11-04T15:58:58.109Z,54.40
2017-11-04T16:01:28.566Z,54.60
2017-11-04T16:03:56.327Z,54.50
2017-11-04T16:06:23.955Z,54.80
2017-11-04T16:08:51.660Z,55.20
2017-11-04T16:11:23.393Z,55.40
2017-11-04T16:16:51.796Z,56.00
2017-11-04T16:19:20.017Z,56.50
2017-11-04T16:21:47.526Z,56.60
2017-11-04T16:24:15.067Z,56.80
2017-11-04T16:26:43.315Z,57.20
2017-11-04T16:29:10.915Z,57.30
2017-11-04T16:31:39.252Z,57.50
2017-11-04T16:34:06.738Z,57.50
2017-11-04T16:36:35.604Z,57.90
2017-11-04T16:39:03.246Z,57.90
2017-11-04T16:41:31.480Z,58.30
2017-11-04T16:43:59.060Z,58.30
2017-11-04T16:46:26.589Z,58.70
2017-11-04T16:48:55.097Z,58.70
2017-11-04T16:51:22.661Z,59.00
2017-11-04T16:53:50.156Z,59.30
2017-11-04T16:56:17.760Z,59.60
2017-11-04T16:58:45.231Z,59.80
2017-11-04T17:01:12.701Z,60.10
2017-11-04T17:03:40.602Z,60.30
2017-11-04T17:06:08.088Z,60.50
2017-11-04T17:08:35.587Z,60.50
2017-11-04T17:11:03.142Z,60.40
2017-11-04T17:13:30.660Z,60.50
2017-11-04T17:15:58.179Z,60.90
2017-11-04T17:18:25.706Z,61.00
2017-11-04T17:20:53.288Z,61.10
2017-11-04T17:23:20.789Z,61.20
2017-11-04T17:25:48.245Z,61.30
2017-11-04T17:28:16.118Z,61.40
2017-11-04T17:30:43.660Z,61.60
2017-11-04T17:33:11.184Z,61.70
2017-11-04T17:35:38.749Z,61.50
2017-11-04T17:38:06.997Z,61.60
2017-11-04T17:40:34.508Z,61.70
2017-11-04T17:43:02.451Z,61.70
2017-11-04T17:45:30.645Z,61.60
2017-11-04T17:47:58.149Z,61.80
2017-11-04T17:50:29.215Z,62.50
2017-11-04T17:52:57.975Z,62.40
2017-11-04T17:55:26.300Z,62.70
2017-11-04T17:57:58.032Z,62.60
2017-11-04T18:00:26.092Z,62.60
2017-11-04T18:02:53.581Z,62.40
2017-11-04T18:05:21.063Z,62.60
2017-11-04T18:07:49.740Z,63.10
2017-11-04T18:10:17.243Z,63.10
2017-11-04T18:12:44.766Z,62.80
2017-11-04T18:15:13.491Z,62.70
2017-11-04T18:17:40.981Z,62.80
2017-11-04T18:20:08.499Z,62.80
2017-11-04T18:22:36.932Z,63.30
2017-11-04T18:25:05.192Z,63.60
2017-11-04T18:27:32.690Z,64.30
2017-11-04T18:30:01.238Z,63.60
2017-11-04T18:32:28.727Z,63.60
2017-11-04T18:34:56.256Z,63.70
2017-11-04T18:37:24.040Z,64.00
2017-11-04T18:39:51.515Z,64.10
2017-11-04T18:42:18.995Z,64.10
2017-11-04T18:44:47.379Z,64.50
2017-11-04T18:47:14.858Z,64.50
2017-11-04T18:49:42.331Z,64.90
2017-11-04T18:52:10.271Z,64.70
2017-11-04T18:54:37.763Z,64.60
2017-11-04T18:57:05.272Z,65.20
2017-11-04T18:59:32.836Z,64.40
2017-11-04T19:02:00.329Z,64.70
2017-11-04T19:04:27.892Z,65.00
2017-11-04T19:06:55.350Z,65.10
2017-11-04T19:09:23.291Z,65.20
2017-11-04T19:11:50.768Z,65.20
2017-11-04T19:14:18.244Z,65.10
2017-11-04T19:16:45.797Z,65.40
2017-11-04T19:19:14.570Z,65.40
2017-11-04T19:21:42.055Z,65.50
2017-11-04T19:24:09.772Z,65.00
2017-11-04T19:26:37.765Z,64.90
2017-11-04T19:29:05.328Z,64.80
2017-11-04T19:31:32.826Z,65.10
2017-11-04T19:34:00.391Z,65.40
2017-11-04T19:36:27.891Z,65.30
2017-11-04T19:38:55.361Z,66.00
2017-11-04T19:41:22.948Z,66.20
2017-11-04T19:43:50.418Z,66.10
2017-11-04T19:46:18.905Z,65.60
2017-11-04T19:48:46.484Z,65.60
2017-11-04T19:51:13.993Z,66.00
2017-11-04T19:53:42.263Z,66.10
2017-11-04T19:56:09.977Z,66.10
2017-11-04T19:58:37.928Z,66.30
2017-11-04T20:01:05.501Z,66.10
2017-11-04T20:03:33.103Z,65.90
2017-11-04T20:06:00.662Z,66.20
2017-11-04T20:08:29.563Z,66.50
2017-11-04T20:10:57.129Z,66.50
2017-11-04T20:13:25.460Z,66.40
2017-11-04T20:15:53.088Z,66.50
2017-11-04T20:18:20.603Z,66.60
2017-11-04T20:20:48.201Z,66.60
2017-11-04T20:23:15.754Z,66.70
2017-11-04T20:25:44.280Z,67.10
2017-11-04T20:28:11.803Z,67.10
2017-11-04T20:30:40.065Z,66.70
2017-11-04T20:33:07.678Z,66.70
2017-11-04T20:35:35.304Z,66.40
2017-11-04T20:38:02.790Z,66.70
2017-11-04T20:40:30.453Z,66.50
2017-11-04T20:42:58.729Z,66.10
2017-11-04T20:45:26.387Z,66.10
2017-11-04T20:47:53.901Z,66.40
2017-11-04T20:50:22.170Z,66.60
2017-11-04T20:52:50.508Z,66.90
2017-11-04T20:55:19.079Z,66.70
2017-11-04T20:57:46.569Z,66.80
2017-11-04T21:00:14.103Z,66.80
2017-11-04T21:02:41.608Z,66.70
2017-11-04T21:05:09.216Z,66.90
2017-11-04T21:07:36.680Z,66.60
2017-11-04T21:10:04.329Z,66.50
2017-11-04T21:12:32.676Z,66.60
2017-11-04T21:15:00.166Z,66.50
2017-11-04T21:17:27.664Z,66.60
2017-11-04T21:19:55.607Z,67.20
2017-11-04T21:22:23.094Z,67.40
2017-11-04T21:24:50.645Z,67.40
2017-11-04T21:27:18.212Z,67.50
2017-11-04T21:29:45.713Z,67.40
2017-11-04T21:32:13.955Z,67.00
2017-11-04T21:34:41.635Z,66.90
2017-11-04T21:37:10.023Z,66.80
2017-11-04T21:39:37.506Z,66.80
2017-11-04T21:42:05.838Z,66.60
2017-11-04T21:44:33.433Z,66.60
2017-11-04T21:47:00.950Z,66.40
2017-11-04T21:49:29.236Z,66.30
2017-11-04T21:51:56.823Z,66.30
2017-11-04T21:54:24.296Z,66.20
2017-11-04T21:56:52.582Z,66.00
2017-11-04T21:59:20.934Z,65.30
2017-11-04T22:01:48.435Z,65.20
2017-11-04T22:04:15.931Z,66.00
2017-11-04T22:06:43.502Z,66.20
2017-11-04T22:09:11.005Z,65.80
2017-11-04T22:11:39.370Z,65.60
2017-11-04T22:14:06.918Z,65.60
2017-11-04T22:16:35.391Z,66.00
2017-11-04T22:19:02.872Z,66.60
2017-11-04T22:21:31.247Z,65.90
2017-11-04T22:23:59.474Z,65.90
2017-11-04T22:26:26.987Z,66.10
2017-11-04T22:28:54.589Z,65.90
2017-11-04T22:31:22.071Z,66.00
2017-11-04T22:33:49.564Z,65.90
2017-11-04T22:36:17.151Z,65.60
2017-11-04T22:38:45.394Z,64.80
2017-11-04T22:41:12.886Z,64.90
2017-11-04T22:43:40.428Z,64.70
2017-11-04T22:46:07.930Z,65.00
2017-11-04T22:48:35.552Z,65.30
2017-11-04T22:51:03.897Z,65.30
2017-11-04T22:53:31.395Z,65.20
2017-11-04T22:55:59.024Z,65.50
2017-11-04T22:58:26.960Z,65.20
2017-11-04T23:00:54.446Z,65.10
2017-11-04T23:03:22.030Z,66.10
2017-11-04T23:05:49.527Z,65.10
2017-11-04T23:08:17.112Z,65.00
2017-11-04T23:10:44.750Z,64.80
2017-11-04T23:13:12.288Z,65.10
2017-11-04T23:15:39.815Z,64.80
2017-11-04T23:18:07.751Z,65.00
2017-11-04T23:20:35.230Z,64.30
2017-11-04T23:23:03.473Z,64.60
2017-11-04T23:25:31.769Z,64.90
2017-11-04T23:28:00.113Z,64.60
2017-11-04T23:30:27.697Z,64.60
2017-11-04T23:32:55.194Z,65.10
2017-11-04T23:35:23.540Z,65.10
2017-11-04T23:37:51.796Z,65.10
2017-11-04T23:40:19.331Z,65.20
2017-11-04T23:42:46.919Z,65.10
2017-11-04T23:45:14.396Z,65.00
2017-11-04T23:47:42.668Z,64.40
2017-11-04T23:50:10.206Z,64.40
2017-11-04T23:52:37.744Z,64.60
2017-11-04T23:55:05.236Z,64.60
2017-11-04T23:57:33.570Z,64.90
